Time;durP1;ratioP1;P1;durP2;ratioP2;P2;SDS_P1;SDS_P2;PMS_P1;PMS_P2;Temp;Humidity;BMP_temperature;BMP_pressure;BME280_temperature;BME280_humidity;BME280_pressure;Samples;Min_cycle;Max_cycle;Signal;HPM_P1;HPM_P2
2023/06/09 00:01:35;;;;;;;6.22;4.13;;;18.00;99.90;;;;;;4998027;28;20026;-68
2023/06/09 00:04:03;;;;;;;5.60;4.70;;;17.80;99.90;;;;;;4997764;28;20121;-68
2023/06/09 00:06:33;;;;;;;10.25;5.80;;;17.80;99.90;;;;;;4997244;28;20092;-68
2023/06/09 00:08:58;;;;;;;10.25;6.05;;;17.90;99.90;;;;;;4997318;28;20026;-68
2023/06/09 00:11:25;;;;;;;8.48;4.93;;;17.80;99.90;;;;;;4996849;28;20117;-68
2023/06/09 00:13:51;;;;;;;7.47;4.78;;;17.90;99.90;;;;;;4997275;28;20030;-68
2023/06/09 00:16:16;;;;;;;6.63;4.90;;;17.90;99.90;;;;;;4997631;28;20030;-68
2023/06/09 00:18:43;;;;;;;8.00;4.90;;;17.90;99.90;;;;;;4997096;28;20033;-68
2023/06/09 00:21:10;;;;;;;9.48;4.95;;;17.90;99.90;;;;;;4997588;28;20032;-68
2023/06/09 00:23:35;;;;;;;8.73;5.38;;;17.80;99.90;;;;;;4996691;28;20050;-68
2023/06/09 00:26:02;;;;;;;7.97;4.35;;;17.80;99.90;;;;;;4997065;28;20034;-69
2023/06/09 00:28:27;;;;;;;6.60;5.45;;;17.90;99.90;;;;;;4996992;28;20026;-69
2023/06/09 00:30:53;;;;;;;7.68;4.85;;;17.90;99.90;;;;;;4996724;28;20026;-71
2023/06/09 00:33:18;;;;;;;8.07;4.65;;;17.80;99.90;;;;;;4996888;28;20072;-70
2023/06/09 00:35:44;;;;;;;8.05;5.43;;;17.90;99.90;;;;;;4996989;28;20030;-70
2023/06/09 00:38:10;;;;;;;9.25;5.63;;;17.80;99.90;;;;;;5001263;28;20023;-69
2023/06/09 00:40:35;;;;;;;6.10;5.20;;;17.70;99.90;;;;;;5000971;28;20049;-71
2023/06/09 00:43:01;;;;;;;7.45;4.70;;;17.70;99.90;;;;;;5000868;28;20177;-71
2023/06/09 00:45:26;;;;;;;9.82;4.97;;;17.60;99.90;;;;;;5000800;28;20085;-70
2023/06/09 00:47:53;;;;;;;9.98;5.97;;;17.60;99.90;;;;;;5000771;28;20037;-70
2023/06/09 00:50:20;;;;;;;7.63;5.60;;;17.60;99.90;;;;;;5000467;28;20023;-70
2023/06/09 00:52:46;;;;;;;8.07;5.35;;;17.50;99.90;;;;;;5001471;28;20048;-70
2023/06/09 00:55:13;;;;;;;7.18;5.43;;;17.50;99.90;;;;;;5000505;28;20022;-70
2023/06/09 00:57:39;;;;;;;8.85;5.45;;;17.50;99.90;;;;;;5000672;28;20019;-70
2023/06/09 01:00:06;;;;;;;10.27;5.75;;;17.50;99.90;;;;;;5000627;28;20085;-70
2023/06/09 01:02:37;;;;;;;7.38;5.60;;;17.60;99.90;;;;;;5000560;28;20030;-68
2023/06/09 01:05:05;;;;;;;7.30;5.43;;;17.60;99.90;;;;;;5000539;28;20033;-69
2023/06/09 01:07:38;;;;;;;11.07;5.57;;;17.60;99.90;;;;;;5000701;28;20219;-71
2023/06/09 01:10:25;;;;;;;7.20;5.95;;;17.60;99.90;;;;;;5017491;28;20026;-70
2023/06/09 01:13:05;;;;;;;9.85;6.45;;;17.50;99.90;;;;;;5000134;28;20098;-70
2023/06/09 01:15:36;;;;;;;8.85;5.75;;;17.60;99.90;;;;;;5000052;28;20038;-68
2023/06/09 01:18:03;;;;;;;7.87;5.73;;;17.60;99.90;;;;;;5001238;28;20029;-70
2023/06/09 01:21:17;;;;;;;8.13;5.25;;;17.40;99.90;;;;;;5000069;28;20023;-71
2023/06/09 01:23:56;;;;;;;8.38;5.60;;;17.40;99.90;;;;;;4995354;28;20031;-71
2023/06/09 01:26:23;;;;;;;7.93;5.60;;;17.40;99.90;;;;;;5000215;28;20094;-71
2023/06/09 01:28:50;;;;;;;8.50;6.30;;;17.50;99.90;;;;;;4999716;28;20030;-71
2023/06/09 01:31:16;;;;;;;8.57;5.78;;;17.50;99.90;;;;;;4999782;28;20026;-70
2023/06/09 01:33:44;;;;;;;10.02;5.90;;;17.60;99.90;;;;;;5000067;28;20037;-71
2023/06/09 01:36:10;;;;;;;12.93;5.97;;;17.60;99.90;;;;;;4999588;28;20026;-68
2023/06/09 01:38:37;;;;;;;10.43;6.00;;;17.60;99.90;;;;;;5000041;28;20097;-68
2023/06/09 01:41:03;;;;;;;9.38;6.00;;;17.60;99.90;;;;;;4999529;28;20023;-68
2023/06/09 01:43:29;;;;;;;10.93;6.28;;;17.50;99.90;;;;;;5000221;28;20022;-68
2023/06/09 01:45:54;;;;;;;10.20;5.97;;;17.50;99.90;;;;;;4999521;28;20027;-69
2023/06/09 01:48:29;;;;;;;6.25;5.50;;;17.50;99.90;;;;;;4998916;28;20030;-71
2023/06/09 01:51:08;;;;;;;7.63;5.97;;;17.30;99.90;;;;;;4999974;28;20065;-71
2023/06/09 01:53:41;;;;;;;9.38;6.43;;;17.30;99.90;;;;;;5000033;28;20027;-71
2023/06/09 01:56:21;;;;;;;12.88;6.75;;;17.20;99.90;;;;;;5000093;28;20026;-68
2023/06/09 01:58:51;;;;;;;13.93;6.47;;;17.10;99.90;;;;;;4999972;28;20026;-71
2023/06/09 02:01:18;;;;;;;8.50;5.78;;;17.20;99.90;;;;;;4999473;28;20023;-71
2023/06/09 02:03:46;;;;;;;8.35;5.43;;;17.10;99.90;;;;;;4999544;28;20022;-68
2023/06/09 02:06:13;;;;;;;10.15;6.47;;;17.20;99.90;;;;;;4999369;28;20031;-71
2023/06/09 02:08:39;;;;;;;14.15;5.88;;;17.10;99.90;;;;;;4999285;28;20031;-71
2023/06/09 02:11:05;;;;;;;7.80;5.70;;;17.10;99.90;;;;;;4999754;28;20053;-71
2023/06/09 02:13:30;;;;;;;10.00;5.97;;;17.10;99.90;;;;;;4999082;28;20098;-71
2023/06/09 02:15:56;;;;;;;7.18;5.57;;;17.10;99.90;;;;;;4998952;28;20034;-71
2023/06/09 02:18:22;;;;;;;9.27;5.90;;;17.10;99.90;;;;;;4999128;28;20054;-68
2023/06/09 02:20:48;;;;;;;8.32;6.22;;;17.00;99.90;;;;;;4998876;28;20026;-70
2023/06/09 02:23:23;;;;;;;10.02;6.35;;;17.00;99.90;;;;;;4998757;28;20081;-71
2023/06/09 02:25:49;;;;;;;10.52;6.63;;;17.00;99.90;;;;;;4999223;28;20085;-71
2023/06/09 02:28:16;;;;;;;9.05;5.88;;;16.90;99.90;;;;;;4998816;28;20030;-71
2023/06/09 02:30:43;;;;;;;9.43;5.72;;;16.90;99.90;;;;;;4998944;28;20026;-69
2023/06/09 02:33:08;;;;;;;9.57;6.10;;;16.90;99.90;;;;;;4998743;28;20026;-68
2023/06/09 02:35:34;;;;;;;11.10;7.03;;;16.70;99.90;;;;;;4998628;28;20126;-69
2023/06/09 02:38:05;;;;;;;9.15;6.25;;;16.70;99.90;;;;;;4998560;28;20025;-70
2023/06/09 02:40:31;;;;;;;8.57;6.13;;;16.80;99.90;;;;;;4999404;28;20026;-68
2023/06/09 02:42:57;;;;;;;9.63;6.47;;;16.80;99.90;;;;;;4999555;28;20034;-69
2023/06/09 02:45:22;;;;;;;12.30;5.97;;;17.00;99.90;;;;;;4998316;28;20027;-70
2023/06/09 02:47:48;;;;;;;10.88;6.00;;;17.00;99.90;;;;;;4998220;28;20037;-70
2023/06/09 02:50:14;;;;;;;8.77;5.60;;;16.90;99.90;;;;;;4998182;28;20033;-70
2023/06/09 02:52:39;;;;;;;9.18;6.55;;;16.90;99.90;;;;;;4998480;28;20118;-71
2023/06/09 02:55:06;;;;;;;11.32;6.80;;;16.70;99.90;;;;;;4998772;28;20054;-68
2023/06/09 02:57:32;;;;;;;8.18;6.15;;;16.60;99.90;;;;;;4998171;28;20116;-69
2023/06/09 02:59:58;;;;;;;10.82;6.82;;;16.70;99.90;;;;;;4998080;28;20046;-70
2023/06/09 03:02:24;;;;;;;10.25;6.75;;;16.70;99.90;;;;;;4998963;28;20054;-71
2023/06/09 03:04:52;;;;;;;13.40;6.20;;;16.70;99.90;;;;;;4998769;28;20054;-70
2023/06/09 03:07:17;;;;;;;11.93;6.55;;;16.70;99.90;;;;;;4997940;28;20026;-70
2023/06/09 03:09:43;;;;;;;9.20;6.18;;;16.80;99.90;;;;;;4998822;28;20036;-71
2023/06/09 03:12:10;;;;;;;11.90;6.40;;;16.60;99.90;;;;;;4998064;28;20033;-72
2023/06/09 03:14:36;;;;;;;10.38;6.15;;;16.50;99.90;;;;;;4997775;28;20034;-70
2023/06/09 03:17:04;;;;;;;8.77;5.78;;;16.50;99.90;;;;;;4997662;28;20084;-70
2023/06/09 03:19:32;;;;;;;9.18;6.13;;;16.60;99.90;;;;;;4997777;28;20023;-70
2023/06/09 03:21:58;;;;;;;8.07;6.15;;;16.50;99.90;;;;;;4997780;28;20018;-70
2023/06/09 03:24:25;;;;;;;9.05;6.53;;;16.50;99.90;;;;;;4997475;28;20030;-70
2023/06/09 03:26:52;;;;;;;11.18;7.22;;;16.50;99.90;;;;;;4997618;28;20038;-70
2023/06/09 03:29:21;;;;;;;9.77;6.30;;;16.40;99.90;;;;;;4997927;28;20030;-70
2023/06/09 03:31:47;;;;;;;18.63;7.10;;;16.40;99.90;;;;;;4997485;28;20026;-70
2023/06/09 03:34:13;;;;;;;11.27;7.18;;;16.40;99.90;;;;;;4997359;28;20034;-70
2023/06/09 03:36:39;;;;;;;10.27;7.30;;;16.40;99.90;;;;;;4997321;28;20073;-70
2023/06/09 03:39:07;;;;;;;10.77;6.53;;;16.40;99.90;;;;;;4997427;28;20031;-70
2023/06/09 03:41:33;;;;;;;9.70;6.90;;;16.40;99.90;;;;;;4998179;28;20022;-70
2023/06/09 03:43:59;;;;;;;16.15;7.50;;;16.40;99.90;;;;;;4997240;28;20026;-70
2023/06/09 03:46:25;;;;;;;8.88;6.57;;;16.40;99.90;;;;;;4998103;28;20022;-70
2023/06/09 03:48:51;;;;;;;9.10;7.20;;;16.20;99.90;;;;;;4997565;28;20030;-70
2023/06/09 03:51:18;;;;;;;15.10;7.72;;;16.40;99.90;;;;;;4997193;28;20045;-70
2023/06/09 03:53:44;;;;;;;14.77;7.75;;;16.40;99.90;;;;;;4997978;28;20018;-70
2023/06/09 03:56:09;;;;;;;9.93;7.15;;;16.50;99.90;;;;;;4997438;28;20018;-70
2023/06/09 03:58:35;;;;;;;10.52;6.72;;;16.50;99.90;;;;;;4997967;28;20033;-71
2023/06/09 04:01:01;;;;;;;10.43;6.40;;;16.50;99.90;;;;;;4998224;28;20030;-70
2023/06/09 04:03:26;;;;;;;11.10;7.13;;;16.50;99.90;;;;;;4997925;28;20054;-70
2023/06/09 04:05:52;;;;;;;11.38;7.43;;;16.50;99.90;;;;;;4997056;28;20030;-70
2023/06/09 04:08:17;;;;;;;8.68;6.22;;;16.50;99.90;;;;;;4997264;28;20034;-70
2023/06/09 04:10:44;;;;;;;8.98;6.40;;;16.50;99.90;;;;;;4997245;28;20106;-70
2023/06/09 04:13:11;;;;;;;9.48;7.07;;;16.60;99.90;;;;;;4996990;28;20033;-70
2023/06/09 04:15:37;;;;;;;11.65;7.43;;;16.60;99.90;;;;;;4996744;28;20035;-70
2023/06/09 04:18:03;;;;;;;10.43;7.03;;;16.50;99.90;;;;;;4997630;28;20026;-70
2023/06/09 04:20:29;;;;;;;15.45;7.15;;;16.40;99.90;;;;;;4996812;28;20022;-70
2023/06/09 04:22:55;;;;;;;11.35;7.30;;;16.60;99.90;;;;;;4997640;28;20085;-70
2023/06/09 04:25:27;;;;;;;15.40;6.93;;;16.60;99.90;;;;;;4997510;28;20034;-70
2023/06/09 04:27:54;;;;;;;8.10;6.60;;;16.70;99.90;;;;;;4997648;28;20030;-70
2023/06/09 04:30:25;;;;;;;10.30;6.60;;;16.80;99.90;;;;;;4996734;28;20026;-70
2023/06/09 04:32:54;;;;;;;9.93;6.50;;;16.80;99.90;;;;;;4996739;28;20030;-70
2023/06/09 04:35:23;;;;;;;13.75;7.28;;;16.70;99.90;;;;;;4996607;28;20077;-70
2023/06/09 04:37:50;;;;;;;9.48;6.90;;;16.80;99.90;;;;;;4996732;28;20022;-70
2023/06/09 04:40:22;;;;;;;11.02;7.30;;;16.70;99.90;;;;;;4997587;28;20023;-70
2023/06/09 04:42:52;;;;;;;12.73;7.25;;;16.70;99.90;;;;;;4997429;28;20023;-70
2023/06/09 04:45:19;;;;;;;10.43;7.00;;;16.70;99.90;;;;;;5014075;28;20027;-70
2023/06/09 04:47:48;;;;;;;13.10;7.35;;;16.60;99.90;;;;;;4997561;28;20080;-70
2023/06/09 04:50:17;;;;;;;13.93;8.43;;;16.70;99.90;;;;;;4996563;28;20023;-70
2023/06/09 04:52:44;;;;;;;9.82;7.45;;;16.60;99.90;;;;;;4996845;28;20077;-71
2023/06/09 04:55:11;;;;;;;10.65;7.05;;;16.50;99.90;;;;;;4997433;28;20030;-70
2023/06/09 04:57:38;;;;;;;11.95;7.47;;;16.60;99.90;;;;;;4997579;28;20042;-70
2023/06/09 05:00:06;;;;;;;13.00;6.85;;;16.50;99.90;;;;;;4997475;28;20019;-70
2023/06/09 05:02:32;;;;;;;8.98;6.93;;;16.40;99.90;;;;;;4996771;28;20022;-69
2023/06/09 05:04:57;;;;;;;10.60;7.13;;;16.40;99.90;;;;;;4996598;28;20023;-70
2023/06/09 05:07:24;;;;;;;11.55;7.05;;;16.40;99.90;;;;;;4996342;28;20034;-70
2023/06/09 05:09:49;;;;;;;10.15;6.95;;;16.50;99.90;;;;;;4997216;28;20105;-70
2023/06/09 05:12:15;;;;;;;9.82;6.65;;;16.60;99.90;;;;;;4997157;28;20047;-70
2023/06/09 05:14:42;;;;;;;9.88;6.82;;;16.70;99.90;;;;;;4997240;28;20299;-70
2023/06/09 05:17:07;;;;;;;9.85;7.38;;;16.70;99.90;;;;;;4996354;28;20029;-70
2023/06/09 05:19:33;;;;;;;12.43;6.93;;;16.70;99.90;;;;;;4997095;28;20019;-70
2023/06/09 05:21:58;;;;;;;9.23;6.68;;;16.90;99.90;;;;;;4987319;28;20030;-70
2023/06/09 05:24:24;;;;;;;11.52;7.20;;;16.90;99.90;;;;;;4986473;28;20023;-70
2023/06/09 05:26:50;;;;;;;10.50;7.50;;;17.00;99.90;;;;;;4987949;28;20015;-70
2023/06/09 05:29:16;;;;;;;11.32;7.03;;;17.20;99.90;;;;;;4990766;28;20019;-69
2023/06/09 05:31:41;;;;;;;14.70;8.18;;;17.20;99.90;;;;;;5004807;28;20041;-70
2023/06/09 05:34:07;;;;;;;11.13;7.53;;;17.20;99.90;;;;;;4989918;28;20022;-70
2023/06/09 05:36:33;;;;;;;8.90;6.95;;;17.20;99.90;;;;;;4989858;28;20050;-70
2023/06/09 05:38:59;;;;;;;12.38;7.55;;;17.10;99.90;;;;;;4989594;28;20015;-70
2023/06/09 05:41:25;;;;;;;8.82;6.50;;;17.10;99.90;;;;;;4987714;28;20113;-70
2023/06/09 05:43:52;;;;;;;10.98;7.60;;;17.30;99.90;;;;;;4978821;28;20090;-70
2023/06/09 05:46:17;;;;;;;9.27;7.25;;;17.40;99.90;;;;;;4978656;28;20069;-70
2023/06/09 05:48:43;;;;;;;10.65;6.97;;;17.40;99.90;;;;;;4979485;28;20030;-70
2023/06/09 05:51:08;;;;;;;11.32;7.70;;;17.30;99.90;;;;;;4978834;28;20035;-70
2023/06/09 05:53:34;;;;;;;11.13;7.22;;;17.50;99.90;;;;;;4979268;28;20042;-70
2023/06/09 05:56:00;;;;;;;9.30;6.80;;;17.50;99.90;;;;;;4985226;28;20031;-70
2023/06/09 05:58:27;;;;;;;9.38;6.85;;;17.60;99.90;;;;;;4990358;28;20027;-70
2023/06/09 06:00:57;;;;;;;10.95;7.38;;;17.70;99.90;;;;;;4988406;28;20019;-70
2023/06/09 06:03:23;;;;;;;12.83;7.50;;;17.70;99.90;;;;;;4988553;28;20026;-70
2023/06/09 06:05:48;;;;;;;9.82;7.50;;;17.80;99.90;;;;;;4987672;28;20019;-70
2023/06/09 06:08:14;;;;;;;13.85;7.65;;;17.80;99.90;;;;;;4989630;28;20058;-69
2023/06/09 06:10:39;;;;;;;9.95;7.57;;;17.80;99.90;;;;;;4989125;28;20053;-70
2023/06/09 06:13:05;;;;;;;14.75;8.23;;;17.90;99.90;;;;;;4988486;28;20105;-70
2023/06/09 06:15:30;;;;;;;12.35;7.63;;;18.00;99.90;;;;;;4987835;28;20038;-70
2023/06/09 06:17:56;;;;;;;14.40;7.25;;;18.00;99.90;;;;;;4990546;28;20037;-70
2023/06/09 06:20:21;;;;;;;13.30;7.95;;;18.00;99.90;;;;;;4990497;28;20037;-70
2023/06/09 06:22:47;;;;;;;10.80;7.68;;;18.10;99.90;;;;;;4988741;28;20034;-70
2023/06/09 06:25:13;;;;;;;9.07;6.72;;;18.20;99.90;;;;;;4987563;28;20085;-70
2023/06/09 06:27:39;;;;;;;19.42;7.85;;;18.30;99.90;;;;;;5004404;28;20025;-70
2023/06/09 06:30:06;;;;;;;9.30;7.85;;;18.30;99.90;;;;;;4989728;28;20014;-70
2023/06/09 06:32:32;;;;;;;14.50;7.93;;;18.30;99.90;;;;;;4989273;28;20065;-70
2023/06/09 06:34:57;;;;;;;9.65;7.30;;;18.40;99.90;;;;;;4986669;28;20113;-70
2023/06/09 06:37:23;;;;;;;11.88;8.38;;;18.50;99.90;;;;;;4986702;28;20158;-70
2023/06/09 06:39:48;;;;;;;9.25;7.75;;;18.50;99.90;;;;;;4988173;28;20034;-70
2023/06/09 06:42:14;;;;;;;10.43;8.32;;;18.60;99.90;;;;;;4993650;28;20030;-70
2023/06/09 06:44:39;;;;;;;11.27;7.70;;;18.70;99.90;;;;;;4998518;28;20026;-70
2023/06/09 06:47:06;;;;;;;10.40;7.85;;;18.80;99.90;;;;;;4998512;28;20109;-70
2023/06/09 06:49:31;;;;;;;11.02;8.43;;;18.80;99.90;;;;;;4998244;28;20109;-70
2023/06/09 06:51:57;;;;;;;14.75;8.13;;;18.80;99.90;;;;;;4998668;28;20085;-69
2023/06/09 06:54:22;;;;;;;14.40;7.68;;;18.90;99.90;;;;;;4998133;28;20090;-69
2023/06/09 06:56:48;;;;;;;14.02;7.80;;;18.90;99.90;;;;;;4998026;28;20121;-70
2023/06/09 06:59:13;;;;;;;10.43;6.90;;;19.00;99.90;;;;;;4998042;28;20029;-70
2023/06/09 07:01:42;;;;;;;16.25;7.90;;;19.10;99.90;;;;;;4998531;28;20121;-70
2023/06/09 07:04:07;;;;;;;9.70;6.78;;;19.10;99.90;;;;;;4998052;28;20045;-71
2023/06/09 07:06:33;;;;;;;11.85;7.78;;;19.20;99.90;;;;;;4997949;28;20031;-71
2023/06/09 07:08:59;;;;;;;17.60;8.32;;;19.30;99.90;;;;;;4998059;28;20023;-71
2023/06/09 07:11:24;;;;;;;10.48;6.97;;;19.30;99.90;;;;;;4997868;28;20026;-71
2023/06/09 07:13:51;;;;;;;10.77;7.50;;;19.30;99.90;;;;;;4997713;28;20037;-72
2023/06/09 07:16:18;;;;;;;7.88;7.07;;;19.40;99.90;;;;;;4998565;28;20030;-72
2023/06/09 07:18:43;;;;;;;14.73;8.05;;;19.50;99.90;;;;;;5021538;22;20034;-71
2023/06/09 07:21:09;;;;;;;10.70;7.18;;;19.50;99.90;;;;;;5014049;28;20022;-72
2023/06/09 07:23:34;;;;;;;10.57;7.70;;;19.50;99.90;;;;;;5014044;28;20018;-72
2023/06/09 07:26:00;;;;;;;9.05;7.13;;;19.60;99.90;;;;;;5014255;28;20087;-72
2023/06/09 07:28:26;;;;;;;11.10;7.35;;;19.70;99.90;;;;;;5014434;28;20109;-71
2023/06/09 07:30:51;;;;;;;10.00;7.13;;;19.80;99.90;;;;;;5014657;28;20095;-72
2023/06/09 07:33:19;;;;;;;12.38;7.95;;;19.90;99.90;;;;;;4998361;28;20077;-71
2023/06/09 07:35:48;;;;;;;10.85;7.57;;;19.90;99.90;;;;;;5014894;28;20081;-71
2023/06/09 07:38:15;;;;;;;11.40;7.25;;;20.00;99.90;;;;;;5013656;28;20042;-71
2023/06/09 07:40:40;;;;;;;12.88;7.85;;;20.00;99.90;;;;;;5014053;28;20028;-72
2023/06/09 07:43:06;;;;;;;9.65;7.30;;;20.10;99.90;;;;;;5014013;28;20109;-71
2023/06/09 07:45:31;;;;;;;9.55;7.43;;;20.20;99.90;;;;;;4997909;28;20023;-71
2023/06/09 07:47:57;;;;;;;8.73;7.00;;;20.20;99.90;;;;;;4997155;28;20027;-69
2023/06/09 07:50:22;;;;;;;7.65;6.85;;;20.30;99.90;;;;;;4998295;28;20026;-72
2023/06/09 07:52:48;;;;;;;8.93;6.95;;;20.30;99.90;;;;;;5013707;28;20026;-72
2023/06/09 07:55:13;;;;;;;8.30;6.45;;;20.40;99.90;;;;;;5013341;28;20026;-72
2023/06/09 07:57:40;;;;;;;9.88;7.25;;;20.50;99.90;;;;;;5013407;28;20025;-72
2023/06/09 08:00:06;;;;;;;13.05;6.35;;;20.60;99.90;;;;;;5014082;28;20029;-70
2023/06/09 08:02:32;;;;;;;8.75;6.80;;;20.60;99.90;;;;;;5013230;28;20072;-71
2023/06/09 08:04:59;;;;;;;11.57;6.40;;;20.70;99.90;;;;;;5013599;28;20095;-71
2023/06/09 08:07:24;;;;;;;8.63;6.10;;;20.80;99.90;;;;;;5013312;28;20025;-71
2023/06/09 08:09:50;;;;;;;9.32;7.53;;;20.90;99.90;;;;;;5013258;28;20106;-70
2023/06/09 08:12:16;;;;;;;10.15;6.80;;;20.90;99.90;;;;;;5013967;28;20022;-73
2023/06/09 08:14:42;;;;;;;7.68;6.45;;;21.00;99.90;;;;;;4996802;28;20069;-71
2023/06/09 08:17:07;;;;;;;9.18;6.90;;;21.10;99.90;;;;;;4997782;28;20029;-71
2023/06/09 08:19:33;;;;;;;8.85;7.30;;;21.20;99.90;;;;;;5012838;28;20045;-72
2023/06/09 08:21:58;;;;;;;7.57;6.10;;;21.30;99.90;;;;;;5013163;28;20022;-73
2023/06/09 08:24:24;;;;;;;11.50;6.40;;;21.30;99.90;;;;;;5013368;28;20022;-69
2023/06/09 08:26:51;;;;;;;9.30;6.70;;;21.30;99.90;;;;;;5013140;28;20030;-69
2023/06/09 08:29:18;;;;;;;9.20;6.85;;;21.30;99.90;;;;;;5012932;28;20157;-70
2023/06/09 08:31:44;;;;;;;8.15;6.20;;;21.70;99.90;;;;;;4997597;28;20041;-69
2023/06/09 08:34:09;;;;;;;7.68;5.38;;;21.90;99.90;;;;;;5013120;28;20127;-70
2023/06/09 08:36:35;;;;;;;6.78;6.03;;;21.90;99.90;;;;;;5013806;28;20026;-69
2023/06/09 08:39:01;;;;;;;12.00;6.20;;;22.00;99.90;;;;;;5012973;28;20089;-69
2023/06/09 08:41:28;;;;;;;9.40;6.28;;;22.00;99.90;;;;;;5012930;28;20030;-69
2023/06/09 08:43:54;;;;;;;5.93;5.15;;;22.10;99.90;;;;;;4997569;28;20026;-69
2023/06/09 08:46:21;;;;;;;7.72;5.68;;;22.30;99.90;;;;;;4997342;28;20114;-68
2023/06/09 08:48:54;;;;;;;6.10;5.25;;;22.30;99.90;;;;;;5012907;28;20026;-68
2023/06/09 08:51:21;;;;;;;6.38;5.18;;;22.50;99.90;;;;;;5013751;28;20069;-68
2023/06/09 08:53:52;;;;;;;6.30;4.88;;;22.50;99.90;;;;;;5013982;28;20113;-68
2023/06/09 08:56:19;;;;;;;;;;;22.50;99.90;;;;;;5013486;28;20049;-68
2023/06/09 08:58:46;;;;;;;6.45;5.50;;;22.40;99.90;;;;;;4999253;28;19905;-68
2023/06/09 09:01:13;;;;;;;6.75;5.28;;;22.40;99.90;;;;;;5001283;28;20061;-69
2023/06/09 09:03:38;;;;;;;8.10;6.10;;;22.40;99.90;;;;;;5016453;28;20034;-68
2023/06/09 09:06:04;;;;;;;6.60;5.53;;;22.50;99.90;;;;;;5000146;28;20030;-69
2023/06/09 09:08:29;;;;;;;6.10;5.50;;;22.50;99.90;;;;;;5016456;28;20029;-68
2023/06/09 09:10:55;;;;;;;7.03;5.28;;;22.70;99.90;;;;;;5017077;28;20026;-68
2023/06/09 09:13:26;;;;;;;8.02;4.72;;;23.10;99.90;;;;;;5016523;28;20022;-68
2023/06/09 09:15:52;;;;;;;5.88;4.63;;;23.40;99.90;;;;;;5017213;28;20022;-68
2023/06/09 09:18:21;;;;;;;5.93;4.70;;;23.70;99.90;;;;;;5000930;28;20070;-68
2023/06/09 09:20:48;;;;;;;6.28;4.70;;;23.60;99.90;;;;;;5000889;28;20088;-68
2023/06/09 09:23:14;;;;;;;7.47;5.47;;;23.70;99.90;;;;;;5016255;28;20022;-68
2023/06/09 09:25:41;;;;;;;6.63;4.72;;;24.00;99.90;;;;;;4999948;28;20033;-68
2023/06/09 09:28:12;;;;;;;10.18;5.53;;;24.60;99.90;;;;;;5016895;28;20113;-68
2023/06/09 09:30:42;;;;;;;8.02;5.82;;;24.60;99.90;;;;;;5000762;28;20068;-68
2023/06/09 09:33:12;;;;;;;5.22;4.32;;;24.70;99.90;;;;;;5000903;28;20101;-69
2023/06/09 09:35:39;;;;;;;4.80;4.30;;;24.70;99.90;;;;;;5016778;28;20027;-68
2023/06/09 09:38:22;;;;;;;7.65;4.70;;;24.90;99.90;;;;;;5017467;28;20027;-68
2023/06/09 09:40:50;;;;;;;5.43;4.00;;;24.90;99.90;;;;;;5017593;28;20118;-68
2023/06/09 09:43:17;;;;;;;6.32;4.43;;;24.80;99.90;;;;;;5015824;28;20084;-68
2023/06/09 09:45:47;;;;;;;5.82;4.95;;;25.10;99.90;;;;;;5016333;28;20053;-68
2023/06/09 09:48:14;;;;;;;8.63;6.37;;;25.00;99.90;;;;;;4999583;28;20077;-68
2023/06/09 09:50:44;;;;;;;8.57;4.57;;;25.40;99.90;;;;;;5016191;28;20027;-68
2023/06/09 09:53:11;;;;;;;6.15;4.57;;;25.80;99.90;;;;;;5000240;28;20022;-68
2023/06/09 09:55:45;;;;;;;7.97;4.63;;;25.90;99.90;;;;;;4999386;28;20093;-68
2023/06/09 09:58:12;;;;;;;4.97;4.43;;;25.90;99.90;;;;;;5000207;28;20033;-68
2023/06/09 10:00:39;;;;;;;6.40;4.50;;;25.90;99.90;;;;;;4999377;28;20023;-68
2023/06/09 10:03:14;;;;;;;4.65;4.22;;;25.80;99.90;;;;;;5000082;28;20037;-68
2023/06/09 10:05:43;;;;;;;7.18;4.25;;;26.10;99.90;;;;;;5015500;28;20088;-68
2023/06/09 10:08:10;;;;;;;6.05;4.25;;;26.10;99.90;;;;;;5015525;28;20065;-68
2023/06/09 10:10:36;;;;;;;7.03;4.25;;;26.20;99.90;;;;;;5014608;28;20025;-68
2023/06/09 10:13:03;;;;;;;5.53;4.45;;;26.30;99.90;;;;;;4999702;28;20033;-68
2023/06/09 10:15:30;;;;;;;6.68;4.30;;;26.60;99.90;;;;;;4999818;28;20030;-68
2023/06/09 10:17:57;;;;;;;9.15;4.60;;;26.60;99.90;;;;;;5015272;28;20037;-68
2023/06/09 10:20:23;;;;;;;5.60;4.90;;;26.80;99.90;;;;;;5016069;28;20026;-68
2023/06/09 10:22:49;;;;;;;9.52;4.88;;;26.70;99.90;;;;;;5015529;28;20027;-69
2023/06/09 10:25:15;;;;;;;9.15;4.75;;;27.10;99.90;;;;;;5015969;28;20018;-69
2023/06/09 10:27:42;;;;;;;8.93;4.60;;;27.30;99.90;;;;;;5015136;28;20026;-69
2023/06/09 10:30:08;;;;;;;9.57;4.88;;;27.40;99.90;;;;;;5015179;28;20026;-68
2023/06/09 10:32:38;;;;;;;7.13;5.10;;;27.60;99.90;;;;;;4999687;28;20089;-69
2023/06/09 10:35:05;;;;;;;8.02;4.40;;;27.70;99.90;;;;;;5015198;28;20025;-68
2023/06/09 10:37:32;;;;;;;8.13;4.72;;;27.70;99.90;;;;;;4999409;28;20052;-68
2023/06/09 10:40:00;;;;;;;10.13;4.95;;;27.60;99.90;;;;;;4998542;28;20026;-68
2023/06/09 10:42:41;;;;;;;13.05;4.97;;;27.60;99.90;;;;;;5015550;28;20030;-68
2023/06/09 10:45:13;;;;;;;9.02;4.90;;;27.80;99.90;;;;;;5014636;28;20030;-69
2023/06/09 10:47:47;;;;;;;8.43;5.15;;;28.10;99.90;;;;;;5014733;28;20076;-69
2023/06/09 10:50:30;;;;;;;9.38;5.43;;;28.60;99.90;;;;;;5014943;28;20026;-68
2023/06/09 10:52:57;;;;;;;15.57;5.10;;;28.50;99.90;;;;;;4999506;28;20022;-68
2023/06/09 10:55:27;;;;;;;5.40;4.90;;;28.70;99.90;;;;;;5015363;28;20026;-69
2023/06/09 10:57:54;;;;;;;8.40;5.00;;;28.70;99.90;;;;;;5015092;28;20116;-69
2023/06/09 11:00:21;;;;;;;10.98;5.55;;;28.70;99.90;;;;;;5014541;28;20027;-69
2023/06/09 11:03:11;;;;;;;5.50;5.00;;;29.00;99.90;;;;;;5015273;28;20040;-68
2023/06/09 11:05:44;;;;;;;5.68;4.97;;;29.10;98.20;;;;;;4997691;28;20053;-70
2023/06/09 11:08:10;;;;;;;7.13;4.47;;;29.40;98.20;;;;;;4998004;28;20086;-69
2023/06/09 11:10:37;;;;;;;8.50;5.68;;;29.60;96.80;;;;;;5014308;28;20068;-70
2023/06/09 11:13:37;;;;;;;7.47;5.30;;;29.70;97.10;;;;;;5014585;28;20038;-71
2023/06/09 11:16:03;;;;;;;6.68;4.63;;;29.80;95.40;;;;;;5020218;28;20018;-70
2023/06/09 11:18:29;;;;;;;6.72;5.05;;;29.70;94.10;;;;;;5006141;28;20037;-70
2023/06/09 11:21:09;;;;;;;6.10;4.85;;;29.40;93.50;;;;;;5013515;28;20037;-70
2023/06/09 11:23:56;;;;;;;5.70;4.85;;;29.60;93.90;;;;;;5017242;28;20026;-70
2023/06/09 11:26:23;;;;;;;6.38;5.25;;;29.90;93.70;;;;;;5033604;28;20033;-69
2023/06/09 11:28:49;;;;;;;6.13;4.90;;;30.10;92.30;;;;;;5018075;28;20022;-70
2023/06/09 11:31:15;;;;;;;5.60;4.68;;;30.10;92.50;;;;;;5017444;28;20028;-70
2023/06/09 11:33:53;;;;;;;5.60;5.00;;;30.00;92.00;;;;;;5033813;28;20022;-70
2023/06/09 11:36:25;;;;;;;5.68;4.97;;;30.00;92.30;;;;;;5018002;28;20118;-70
2023/06/09 11:38:51;;;;;;;5.82;4.90;;;30.50;90.90;;;;;;5017778;28;20022;-70
2023/06/09 11:41:22;;;;;;;5.53;4.43;;;30.30;91.30;;;;;;5017799;28;20030;-70
2023/06/09 11:43:50;;;;;;;7.30;5.22;;;30.30;90.90;;;;;;5017762;28;20121;-70
2023/06/09 11:46:16;;;;;;;5.25;4.60;;;30.00;90.20;;;;;;5017145;28;20042;-69
2023/06/09 11:49:03;;;;;;;6.88;4.47;;;30.20;89.50;;;;;;5016666;28;20057;-70
2023/06/09 11:51:29;;;;;;;8.23;4.70;;;30.20;88.70;;;;;;5018050;28;20048;-70
2023/06/09 11:53:54;;;;;;;10.80;4.95;;;30.00;87.60;;;;;;5018417;28;20025;-70
2023/06/09 11:56:21;;;;;;;6.63;5.03;;;30.30;85.80;;;;;;5017138;28;20018;-70
2023/06/09 11:58:46;;;;;;;6.97;4.82;;;30.60;86.80;;;;;;5017566;28;20053;-70
2023/06/09 12:01:12;;;;;;;6.20;4.63;;;30.60;86.40;;;;;;5034132;28;20025;-71
2023/06/09 12:03:38;;;;;;;11.00;4.88;;;30.70;84.30;;;;;;5016651;28;20029;-69
2023/06/09 12:06:04;;;;;;;8.50;4.90;;;30.20;83.40;;;;;;5033050;28;20034;-69
2023/06/09 12:08:29;;;;;;;6.15;4.57;;;30.20;85.90;;;;;;5016751;28;20076;-69
2023/06/09 12:10:55;;;;;;;6.85;4.65;;;30.10;84.80;;;;;;5016617;28;20029;-69
2023/06/09 12:13:20;;;;;;;6.05;4.85;;;30.10;84.80;;;;;;5016502;28;20049;-69
2023/06/09 12:15:53;;;;;;;9.13;4.43;;;29.90;86.60;;;;;;5016550;28;20124;-69
2023/06/09 12:18:18;;;;;;;5.20;4.70;;;30.10;86.10;;;;;;5016566;28;20061;-68
2023/06/09 12:20:46;;;;;;;5.38;4.88;;;29.60;85.60;;;;;;5016447;28;20096;-69
2023/06/09 12:23:14;;;;;;;5.25;4.75;;;29.60;85.60;;;;;;5016664;28;20037;-69
2023/06/09 12:25:44;;;;;;;11.32;5.15;;;29.30;86.20;;;;;;5017129;28;20034;-69
2023/06/09 12:28:24;;;;;;;5.32;4.82;;;29.30;88.10;;;;;;5017134;28;20022;-69
2023/06/09 12:30:54;;;;;;;6.45;4.75;;;29.50;84.60;;;;;;5016321;28;20060;-69
2023/06/09 12:33:29;;;;;;;8.38;5.13;;;29.60;86.30;;;;;;5018616;28;20076;-69
2023/06/09 12:36:02;;;;;;;5.05;4.22;;;29.90;86.70;;;;;;5021149;28;20033;-68
2023/06/09 12:38:28;;;;;;;5.43;4.57;;;30.10;85.90;;;;;;5020361;28;20112;-69
2023/06/09 12:41:06;;;;;;;7.20;5.40;;;30.20;83.00;;;;;;5020341;28;20054;-68
2023/06/09 12:43:57;;;;;;;8.98;4.90;;;30.10;82.10;;;;;;5021513;28;20099;-69
2023/06/09 12:46:33;;;;;;;8.60;4.82;;;30.20;83.10;;;;;;5020163;28;20121;-69